Heinz Schepers — V2OM7 — position and weather

sailwx.info

Track history (hours):
 
Tides and Currents Weather Stations Pressure Air Temp Water Temp Dewpoint Dewpoint Depression Visibility Wind Speed Wind Dir Waves Ship Positions

Heinz Schepers

Last reported at 2016-Apr-19 12:26 UTC. Time now 2016-Apr-29 17:53 UTC.
Position N 36°49' E 010°22'.
Warning: this ship's position is 10 days out of date.

Length 101 m; draft 6.7 m.

Type: Cargo ship. MMSI: 304596000.

Date/timePositionNaut miles runAvg speedWind from/ knotsBaromVisibWave heightAir tempDewpointWater temp
2016-Apr-19 12:26N 36°49' E 010°22'83 3.8
2016-Apr-18 14:26N 38°04' E 009°39'1412.5
2016-Apr-18 13:18N 38°18' E 009°33'912.6
2016-Apr-18 12:33N 38°26' E 009°28'1312.7
2016-Apr-18 11:33N 38°38' E 009°21'1312.7
2016-Apr-18 10:33N 38°50' E 009°15'1212.3
2016-Apr-18 09:33N 39°01' E 009°09'1110.9
2016-Apr-18 08:33N 39°12' E 009°06'2 1.5
2016-Apr-18 07:32N 39°13' E 009°04'0 0.0
2016-Apr-18 06:32N 39°13' E 009°04'0 0.0
2016-Apr-18 05:32N 39°13' E 009°04'0 0.0
2016-Apr-18 04:32N 39°13' E 009°04'0 0.0
2016-Apr-18 03:29N 39°13' E 009°04'0 0.0
2016-Apr-18 02:32N 39°13' E 009°04'0 0.0
2016-Apr-18 01:32N 39°13' E 009°04'0 0.0
2016-Apr-18 00:31N 39°13' E 009°04'0 0.0
2016-Apr-17 23:31N 39°13' E 009°04'0 0.0
2016-Apr-17 22:31N 39°13' E 009°04'0 0.0
2016-Apr-17 21:31N 39°13' E 009°04'0 0.0
2016-Apr-17 20:31N 39°13' E 009°04'0 0.0
2016-Apr-17 19:31N 39°13' E 009°04'0 0.0
2016-Apr-17 18:31N 39°13' E 009°04'0 0.0
2016-Apr-17 17:31N 39°13' E 009°04'0 0.0
2016-Apr-17 16:31N 39°13' E 009°04'0 0.0
2016-Apr-17 15:31N 39°13' E 009°04'0 0.0
2016-Apr-17 14:31N 39°13' E 009°04'0 0.0
2016-Apr-17 13:31N 39°13' E 009°04'0 0.0
2016-Apr-17 12:31N 39°13' E 009°04'0 0.0
2016-Apr-17 11:31N 39°13' E 009°04'0 0.0
2016-Apr-17 10:31N 39°13' E 009°04'0 0.0
2016-Apr-17 09:32N 39°13' E 009°04'7 7.0
2016-Apr-17 08:33N 39°08' E 009°10'1312.6
2016-Apr-17 07:33N 39°02' E 009°24'1110.7
2016-Apr-17 06:33N 38°57' E 009°37'10 9.9
2016-Apr-17 05:33N 38°53' E 009°48'10 9.8
2016-Apr-17 04:33N 38°49' E 009°60'1010.2
2016-Apr-17 03:33N 38°45' E 010°12'1110.9
2016-Apr-17 02:33N 38°42' E 010°25'1110.9
2016-Apr-17 01:33N 38°37' E 010°38'1110.8
2016-Apr-17 00:33N 38°33' E 010°50'1110.8
2016-Apr-16 23:33N 38°29' E 011°03'1110.8
2016-Apr-16 22:33N 38°24' E 011°16'1111.2
2016-Apr-16 21:33N 38°20' E 011°29'1111.4
2016-Apr-16 20:33N 38°16' E 011°42'1010.4
2016-Apr-16 19:33N 38°12' E 011°55'1010.2
2016-Apr-16 18:33N 38°08' E 012°06'1010.1
2016-Apr-16 17:33N 38°04' E 012°18'10 9.9
2016-Apr-16 16:33N 38°00' E 012°30'1 0.8
2016-Apr-16 15:25N 38°01' E 012°31'0 0.0
2016-Apr-16 14:25N 38°01' E 012°31'0 0.0
2016-Apr-16 13:25N 38°01' E 012°31'0 0.0
2016-Apr-16 12:28N 38°01' E 012°31'0 0.0
2016-Apr-16 11:28N 38°01' E 012°31'0 0.0
2016-Apr-16 10:28N 38°01' E 012°31'0 0.0
2016-Apr-16 09:28N 38°01' E 012°31'0 0.0
2016-Apr-16 08:28N 38°01' E 012°31'0 0.0
2016-Apr-16 07:30N 38°01' E 012°31'0 0.0
2016-Apr-16 06:33N 38°01' E 012°31'0 0.3
2016-Apr-16 05:33N 38°01' E 012°31'2 2.0
2016-Apr-16 04:33N 38°02' E 012°29'1 1.1
2016-Apr-16 03:32N 38°02' E 012°30'0 0.0
2016-Apr-16 02:23N 38°02' E 012°30'0 0.0
2016-Apr-16 01:23N 38°02' E 012°30'0 0.0
2016-Apr-16 00:25N 38°02' E 012°30'0 0.0
2016-Apr-15 23:25N 38°02' E 012°30'0 0.0
2016-Apr-15 22:25N 38°02' E 012°30'0 0.0
2016-Apr-15 21:25N 38°02' E 012°30'0 0.1
2016-Apr-15 20:34N 38°02' E 012°30'10 9.9
2016-Apr-15 19:33N 38°04' E 012°17'1111.3
2016-Apr-15 18:33N 38°05' E 012°03'1111.0
2016-Apr-15 17:33N 37°59' E 011°51'1311.5
2016-Apr-15 16:28N 37°52' E 011°38'1011.1
2016-Apr-15 15:32N 37°45' E 011°28'3311.1
2016-Apr-15 12:33N 37°23' E 010°58'1111.2
2016-Apr-15 11:33N 37°14' E 010°48'36 0.8
2016-Apr-13 15:32N 36°48' E 010°16'0 0.0
2016-Apr-13 14:32N 36°48' E 010°16'  
Track history (hours):
 
Tides and Currents Weather Stations Pressure Air Temp Water Temp Dewpoint Dewpoint Depression Visibility Wind Speed Wind Dir Waves Ship Positions

Heinz Schepers

Last reported at 2016-Apr-19 12:26 UTC. Time now 2016-Apr-29 17:53 UTC.
Position N 36°49' E 010°22'.
Warning: this ship's position is 10 days out of date.

Length 101 m; draft 6.7 m.

Type: Cargo ship. MMSI: 304596000.

Date/timePositionNaut miles runAvg speedWind from/ knotsBaromVisibWave heightAir tempDewpointWater temp
2016-Apr-19 12:26N 36°49' E 010°22'83 3.8
2016-Apr-18 14:26N 38°04' E 009°39'1412.5
2016-Apr-18 13:18N 38°18' E 009°33'912.6
2016-Apr-18 12:33N 38°26' E 009°28'1312.7
2016-Apr-18 11:33N 38°38' E 009°21'1312.7
2016-Apr-18 10:33N 38°50' E 009°15'1212.3
2016-Apr-18 09:33N 39°01' E 009°09'1110.9
2016-Apr-18 08:33N 39°12' E 009°06'2 1.5
2016-Apr-18 07:32N 39°13' E 009°04'0 0.0
2016-Apr-18 06:32N 39°13' E 009°04'0 0.0
2016-Apr-18 05:32N 39°13' E 009°04'0 0.0
2016-Apr-18 04:32N 39°13' E 009°04'0 0.0
2016-Apr-18 03:29N 39°13' E 009°04'0 0.0
2016-Apr-18 02:32N 39°13' E 009°04'0 0.0
2016-Apr-18 01:32N 39°13' E 009°04'0 0.0
2016-Apr-18 00:31N 39°13' E 009°04'0 0.0
2016-Apr-17 23:31N 39°13' E 009°04'0 0.0
2016-Apr-17 22:31N 39°13' E 009°04'0 0.0
2016-Apr-17 21:31N 39°13' E 009°04'0 0.0
2016-Apr-17 20:31N 39°13' E 009°04'0 0.0
2016-Apr-17 19:31N 39°13' E 009°04'0 0.0
2016-Apr-17 18:31N 39°13' E 009°04'0 0.0
2016-Apr-17 17:31N 39°13' E 009°04'0 0.0
2016-Apr-17 16:31N 39°13' E 009°04'0 0.0
2016-Apr-17 15:31N 39°13' E 009°04'0 0.0
2016-Apr-17 14:31N 39°13' E 009°04'0 0.0
2016-Apr-17 13:31N 39°13' E 009°04'0 0.0
2016-Apr-17 12:31N 39°13' E 009°04'0 0.0
2016-Apr-17 11:31N 39°13' E 009°04'0 0.0
2016-Apr-17 10:31N 39°13' E 009°04'0 0.0
2016-Apr-17 09:32N 39°13' E 009°04'7 7.0
2016-Apr-17 08:33N 39°08' E 009°10'1312.6
2016-Apr-17 07:33N 39°02' E 009°24'1110.7
2016-Apr-17 06:33N 38°57' E 009°37'10 9.9
2016-Apr-17 05:33N 38°53' E 009°48'10 9.8
2016-Apr-17 04:33N 38°49' E 009°60'1010.2
2016-Apr-17 03:33N 38°45' E 010°12'1110.9
2016-Apr-17 02:33N 38°42' E 010°25'1110.9
2016-Apr-17 01:33N 38°37' E 010°38'1110.8
2016-Apr-17 00:33N 38°33' E 010°50'1110.8
2016-Apr-16 23:33N 38°29' E 011°03'1110.8
2016-Apr-16 22:33N 38°24' E 011°16'1111.2
2016-Apr-16 21:33N 38°20' E 011°29'1111.4
2016-Apr-16 20:33N 38°16' E 011°42'1010.4
2016-Apr-16 19:33N 38°12' E 011°55'1010.2
2016-Apr-16 18:33N 38°08' E 012°06'1010.1
2016-Apr-16 17:33N 38°04' E 012°18'10 9.9
2016-Apr-16 16:33N 38°00' E 012°30'1 0.8
2016-Apr-16 15:25N 38°01' E 012°31'0 0.0
2016-Apr-16 14:25N 38°01' E 012°31'0 0.0
2016-Apr-16 13:25N 38°01' E 012°31'0 0.0
2016-Apr-16 12:28N 38°01' E 012°31'0 0.0
2016-Apr-16 11:28N 38°01' E 012°31'0 0.0
2016-Apr-16 10:28N 38°01' E 012°31'0 0.0
2016-Apr-16 09:28N 38°01' E 012°31'0 0.0
2016-Apr-16 08:28N 38°01' E 012°31'0 0.0
2016-Apr-16 07:30N 38°01' E 012°31'0 0.0
2016-Apr-16 06:33N 38°01' E 012°31'0 0.3
2016-Apr-16 05:33N 38°01' E 012°31'2 2.0
2016-Apr-16 04:33N 38°02' E 012°29'1 1.1
2016-Apr-16 03:32N 38°02' E 012°30'0 0.0
2016-Apr-16 02:23N 38°02' E 012°30'0 0.0
2016-Apr-16 01:23N 38°02' E 012°30'0 0.0
2016-Apr-16 00:25N 38°02' E 012°30'0 0.0
2016-Apr-15 23:25N 38°02' E 012°30'0 0.0
2016-Apr-15 22:25N 38°02' E 012°30'0 0.0
2016-Apr-15 21:25N 38°02' E 012°30'0 0.1
2016-Apr-15 20:34N 38°02' E 012°30'10 9.9
2016-Apr-15 19:33N 38°04' E 012°17'1111.3
2016-Apr-15 18:33N 38°05' E 012°03'1111.0
2016-Apr-15 17:33N 37°59' E 011°51'1311.5
2016-Apr-15 16:28N 37°52' E 011°38'1011.1
2016-Apr-15 15:32N 37°45' E 011°28'3311.1
2016-Apr-15 12:33N 37°23' E 010°58'1111.2
2016-Apr-15 11:33N 37°14' E 010°48'36 0.8
2016-Apr-13 15:32N 36°48' E 010°16'0 0.0
2016-Apr-13 14:32N 36°48' E 010°16'  

Dump ship's entire track history